NORTHAMPTON WEATHER

The latest weather and forecasts for Hardingstone

run by 1st Hardingstone Viking Scout Troop.


Thunder radar more information blitzortung!


Rain radar more information rain snow radar


Nearby METAR Reports

   
EGTC - Cranfield, United Kingdom
Distance from station: SE 24 km
Updated: Sep 27 2021 9:50 am
Partly Cloudy  
Partly Cloudy  
   Wind: WSW 15 kts
Wind: WSW 15 kts
Temperature: 12°C
Dew Point: 11°C
Humidity: 94%
Barometer: 1004 mb
Clouds: Partly Cloudy
Visibility: More than 10 km
Cloud details: Partly Cloudy 1100 ft
EGTC 270850Z 25015KT 9999 SCT011 12/11 Q1004
EGTK - Oxford, United Kingdom
Distance from station: SW 51 km
Updated: Sep 27 2021 9:50 am
Partly Cloudy  
Partly Cloudy  
   Wind: West 15 kts
Wind: West 15 kts
Temperature: 13°C
Dew Point: 10°C
Humidity: 82%
Barometer: 1005 mb
Clouds: Partly Cloudy
Visibility: More than 10 km
Cloud details: Few Clouds 2200 ft,
Partly Cloudy 2600 ft
EGTK 270850Z 27015KT 9999 FEW022 SCT026 13/10 Q1005
EGGW - Luton Airport, United Kingdom
Distance from station: SE 52 km
Updated: Sep 27 2021 9:50 am
Partly Cloudy  
Partly Cloudy  
   Wind: West 18 kts
Wind: West 18 kts
Temperature: 13°C
Dew Point: 12°C
Humidity: 94%
Barometer: 1004 mb
Clouds: Partly Cloudy
Visibility: More than 10 km
Cloud details: Partly Cloudy 900 ft
EGGW 270850Z AUTO 26018KT 9999 SCT009 13/12 Q1004
EGXT - Wittering Raf, United Kingdom
Distance from station: NNE 53 km
Updated: Sep 27 2021 9:50 am
Mostly Cloudy  
Mostly Cloudy  
   Wind: West 21 kts
Wind: West 21 kts
Temperature: 12°C
Dew Point: 11°C
Humidity: 94%
Barometer: 1001 mb
Clouds: Mostly Cloudy
Visibility: More than 10 km
Cloud details: Few Clouds 700 ft,
Mostly Cloudy 9000 ft
EGXT 270850Z 27021KT 9999 FEW007 BKN090 12/11 Q1001 RMK BLU
EGBB - Birmingham Airpo, United Kingdom
Distance from station: WNW 65 km
Updated: Sep 27 2021 9:50 am
Nearby Showers, Mostly Cloudy  
Nearby Showers, Mostly Cloudy  
   Wind: West 10 kts
Wind: West 10 kts
Temperature: 12°C
Dew Point: 10°C
Humidity: 88%
Barometer: 1004 mb
Clouds: Mostly Cloudy
Visibility: More than 10 km
Cloud details: Mostly Cloudy 1800 ft
EGBB 270850Z 27010KT 9999 VCSH BKN018 12/10 Q1004
EGUB - Benson Raf, United Kingdom
Distance from station: S 67 km
Updated: Sep 27 2021 9:50 am
Partly Cloudy  
Partly Cloudy  
   Wind: WSW 17 kts<br />Gust to 17 kts
Wind: WSW 17 kts
Gust to 17 kts
Temperature: 13°C
Dew Point: 10°C
Humidity: 82%
Barometer: 1006 mb
Clouds: Partly Cloudy
Visibility: More than 10 km
Cloud details: Partly Cloudy 2500 ft
EGUB 270850Z 25017G28KT 9999 SCT025 13/10 Q1006 NOSIG RMK BLU BLU
EGVN - Brize Norton Raf, United Kingdom
Distance from station: SW 69 km
Updated: Sep 27 2021 9:50 am
Partly Cloudy  
Partly Cloudy  
   Wind: West 10 kts
Wind: West 10 kts
Temperature: 13°C
Dew Point: 8°C
Humidity: 72%
Barometer: 1006 mb
Clouds: Partly Cloudy
Visibility: More than 10 km
Cloud details: Partly Cloudy 2400 ft
EGVN 270850Z 27010KT 9999 SCT024 13/08 Q1006 TEMPO FEW024 RMK WHT TEMPO BLU
EGSC - Cambridge, United Kingdom
Distance from station: E 72 km
Updated: Sep 27 2021 9:50 am
Mostly Cloudy  
Mostly Cloudy  
   Wind: SW 19 kts<br />Gust to 19 kts
Wind: SW 19 kts
Gust to 19 kts
Temperature: 15°C
Dew Point: 14°C
Humidity: 94%
Barometer: 1003 mb
Clouds: Mostly Cloudy
Visibility: More than 10 km
Cloud details: Few Clouds 600 ft,
Mostly Cloudy 1300 ft
EGSC 270850Z 23019G31KT 9999 FEW006 BKN013 15/14 Q1003 RERA
EGNX - East Midlands, United Kingdom
Distance from station: NNW 73 km
Updated: Sep 27 2021 9:50 am
Light Showers, Rain, Overcast  
Light Showers, Rain, Overcast  
   Wind: West 19 kts
Wind: West 19 kts
Temperature: 12°C
Dew Point: 10°C
Humidity: 88%
Barometer: 1002 mb
Clouds: Overcast
Visibility: More than 10 km
Cloud details: Mostly Cloudy 700 ft,
Overcast 4400 ft
EGNX 270850Z 26019KT 9999 -SHRA BKN007 OVC044 12/10 Q1002
EGWU - Northolt Raf, United Kingdom
Distance from station: SSE 80 km
Updated: Sep 27 2021 9:50 am
Mostly Cloudy  
Mostly Cloudy  
   Wind: West 14 kts
Wind: West 14 kts
Temperature: 14°C
Dew Point: 12°C
Humidity: 88%
Barometer: 1005 mb
Clouds: Mostly Cloudy
Visibility: More than 10 km
Cloud details: Few Clouds 1600 ft,
Mostly Cloudy 6000 ft
EGWU 270850Z 27014KT 9999 FEW016 BKN060 14/12 Q1005 NOSIG RMK BLU BLU
  

Script developed by  Saratoga-weather.org Adapted for the template by  Weerstation Leuven

You find our weather info also at:

UK Metoffice

WeatherCloud

Weather Underground

United Kingdom Weather Network

AWEKAS

Citizen Weather Observer Program (CWOP)

HAMweather, WeatherForYou, PWS Weather

Equipment we use:

Weather-station
Davis VP2

Weather-program
Weather Display

Provider

Davis VP2

Weather Display